Time;durP1;ratioP1;P1;durP2;ratioP2;P2;SDS_P1;SDS_P2;PMS_P1;PMS_P2;Temp;Humidity;BMP_temperature;BMP_pressure;BME280_temperature;BME280_humidity;BME280_pressure;Samples;Min_cycle;Max_cycle;Signal;HPM_P1;HPM_P2
2022/03/02 00:00:57;;;;;;;25.83;14.80;;;;;;;;;;4946601;29;20511;-70
2022/03/02 00:03:24;;;;;;;25.35;15.00;;;;;;;;;;4955125;29;20055;-70
2022/03/02 00:05:50;;;;;;;27.17;15.48;;;;;;;;;;4961620;29;20106;-69
2022/03/02 00:08:16;;;;;;;25.33;14.88;;;;;;;;;;4953578;29;20031;-70
2022/03/02 00:10:43;;;;;;;28.35;15.90;;;;;;;;;;4954485;29;20489;-71
2022/03/02 00:13:13;;;;;;;26.33;14.40;;;;;;;;;;4959105;29;20149;-70
2022/03/02 00:15:39;;;;;;;28.98;15.55;;;;;;;;;;4938546;29;20027;-72
2022/03/02 00:18:05;;;;;;;27.35;16.40;;;;;;;;;;4954088;29;20028;-70
2022/03/02 00:20:31;;;;;;;29.17;15.32;;;;;;;;;;4954489;29;20027;-71
2022/03/02 00:22:57;;;;;;;30.42;16.27;;;;;;;;;;4955127;29;20071;-70
2022/03/02 00:25:23;;;;;;;29.38;16.20;;;;;;;;;;4955601;29;20031;-71
2022/03/02 00:27:50;;;;;;;34.75;18.98;;;;;;;;;;4958601;29;20392;-70
2022/03/02 00:30:18;;;;;;;32.78;19.75;;;;;;;;;;4953290;28;20098;-71
2022/03/02 00:32:44;;;;;;;27.70;16.77;;;;;;;;;;4954718;29;20110;-71
2022/03/02 00:35:15;;;;;;;31.00;15.55;;;;;;;;;;4957976;29;20030;-70
2022/03/02 00:37:42;;;;;;;30.42;15.10;;;;;;;;;;4937729;29;20066;-69
2022/03/02 00:40:08;;;;;;;26.67;15.95;;;;;;;;;;4956430;29;20500;-70
2022/03/02 00:42:34;;;;;;;25.50;15.98;;;;;;;;;;4955183;29;20063;-71
2022/03/02 00:45:00;;;;;;;25.20;15.35;;;;;;;;;;4955303;29;20102;-70
2022/03/02 00:47:26;;;;;;;27.95;14.77;;;;;;;;;;4956147;29;20389;-70
2022/03/02 00:49:52;;;;;;;27.88;15.75;;;;;;;;;;4953002;29;20028;-72
2022/03/02 00:52:19;;;;;;;26.25;15.35;;;;;;;;;;4953097;29;20067;-70
2022/03/02 00:54:45;;;;;;;25.75;14.82;;;;;;;;;;4954087;29;20027;-69
2022/03/02 00:57:11;;;;;;;28.77;15.40;;;;;;;;;;4940536;29;20031;-70
2022/03/02 00:59:37;;;;;;;26.83;15.10;;;;;;;;;;4955359;29;20078;-70
2022/03/02 01:02:03;;;;;;;25.25;14.38;;;;;;;;;;4958484;29;20050;-70
2022/03/02 01:04:29;;;;;;;25.15;13.23;;;;;;;;;;4955782;29;20031;-71
2022/03/02 01:06:55;;;;;;;26.52;13.35;;;;;;;;;;4954542;29;20031;-69
2022/03/02 01:09:21;;;;;;;22.20;14.07;;;;;;;;;;4954877;29;20034;-69
2022/03/02 01:11:48;;;;;;;22.40;13.70;;;;;;;;;;4947056;29;20031;-69
2022/03/02 01:14:14;;;;;;;23.33;14.45;;;;;;;;;;4954019;29;20027;-69
2022/03/02 01:16:40;;;;;;;24.35;14.15;;;;;;;;;;4937297;29;20096;-70
2022/03/02 01:19:06;;;;;;;24.08;14.23;;;;;;;;;;4940360;29;20028;-70
2022/03/02 01:21:32;;;;;;;23.98;14.23;;;;;;;;;;4936105;29;20082;-70
2022/03/02 01:23:59;;;;;;;23.80;14.00;;;;;;;;;;4954122;29;20032;-70
2022/03/02 01:26:29;;;;;;;23.60;13.68;;;;;;;;;;4958022;29;20033;-70
2022/03/02 01:28:55;;;;;;;26.00;14.68;;;;;;;;;;4954130;29;20033;-71
2022/03/02 01:31:25;;;;;;;22.98;13.95;;;;;;;;;;4954225;29;20027;-70
2022/03/02 01:33:52;;;;;;;25.13;14.98;;;;;;;;;;4953132;29;20489;-72
2022/03/02 01:36:19;;;;;;;21.65;14.00;;;;;;;;;;4954325;28;20465;-70
2022/03/02 01:38:45;;;;;;;25.30;14.60;;;;;;;;;;4954066;29;20562;-70
2022/03/02 01:41:15;;;;;;;27.10;15.95;;;;;;;;;;4936584;29;20038;-71
2022/03/02 01:43:41;;;;;;;26.80;14.75;;;;;;;;;;4939849;29;20031;-70
2022/03/02 01:46:07;;;;;;;23.33;14.65;;;;;;;;;;4958682;29;20499;-70
2022/03/02 01:48:33;;;;;;;27.50;15.07;;;;;;;;;;4957773;29;20028;-70
2022/03/02 01:50:59;;;;;;;25.15;13.85;;;;;;;;;;4942553;29;20071;-71
2022/03/02 01:53:26;;;;;;;28.83;15.18;;;;;;;;;;4957418;29;20097;-70
2022/03/02 01:55:52;;;;;;;23.55;14.35;;;;;;;;;;4956812;29;20028;-70
2022/03/02 01:58:18;;;;;;;24.48;14.23;;;;;;;;;;4962595;29;20023;-70
2022/03/02 02:00:44;;;;;;;24.70;14.57;;;;;;;;;;4957508;29;20411;-70
2022/03/02 02:03:12;;;;;;;22.15;13.48;;;;;;;;;;4940912;29;20071;-71
2022/03/02 02:05:38;;;;;;;22.63;14.55;;;;;;;;;;4957554;29;20039;-70
2022/03/02 02:08:05;;;;;;;26.80;14.35;;;;;;;;;;4947879;29;20120;-70
2022/03/02 02:10:31;;;;;;;23.90;13.43;;;;;;;;;;4944670;29;20525;-69
2022/03/02 02:12:57;;;;;;;23.77;13.45;;;;;;;;;;4957236;29;20059;-70
2022/03/02 02:15:23;;;;;;;24.05;13.15;;;;;;;;;;4956630;29;20027;-71
2022/03/02 02:17:51;;;;;;;23.05;13.88;;;;;;;;;;4961614;29;20019;-70
2022/03/02 02:20:17;;;;;;;24.02;13.77;;;;;;;;;;4956959;29;20160;-70
2022/03/02 02:22:45;;;;;;;25.52;15.00;;;;;;;;;;4957088;29;20046;-70
2022/03/02 02:25:12;;;;;;;23.85;14.65;;;;;;;;;;4959501;29;20507;-70
2022/03/02 02:27:38;;;;;;;23.55;15.05;;;;;;;;;;4956424;29;20069;-70
2022/03/02 02:30:13;;;;;;;23.27;14.70;;;;;;;;;;4958550;29;20023;-70
2022/03/02 02:32:44;;;;;;;23.77;14.13;;;;;;;;;;4955812;29;20387;-70
2022/03/02 02:35:11;;;;;;;23.08;13.75;;;;;;;;;;4956419;29;20483;-71
2022/03/02 02:37:40;;;;;;;22.77;14.63;;;;;;;;;;4956112;29;20453;-70
2022/03/02 02:40:08;;;;;;;24.42;13.65;;;;;;;;;;4957577;29;20152;-71
2022/03/02 02:42:34;;;;;;;22.33;13.98;;;;;;;;;;4957604;29;20036;-71
2022/03/02 02:45:01;;;;;;;25.52;14.82;;;;;;;;;;4959619;29;20027;-70
2022/03/02 02:47:27;;;;;;;22.77;14.30;;;;;;;;;;4953396;29;20024;-71
2022/03/02 02:49:53;;;;;;;24.60;14.50;;;;;;;;;;4944966;29;20032;-70
2022/03/02 02:52:21;;;;;;;27.67;14.98;;;;;;;;;;4956494;29;20031;-71
2022/03/02 02:54:50;;;;;;;27.83;14.68;;;;;;;;;;4957894;28;20487;-71
2022/03/02 02:57:17;;;;;;;24.17;15.02;;;;;;;;;;4956761;29;20110;-70
2022/03/02 02:59:43;;;;;;;27.58;15.45;;;;;;;;;;4923723;29;20456;-70
2022/03/02 03:02:13;;;;;;;26.08;14.48;;;;;;;;;;4958780;29;20047;-71
2022/03/02 03:04:42;;;;;;;21.15;13.40;;;;;;;;;;4930270;29;20031;-70
2022/03/02 03:07:08;;;;;;;26.08;14.43;;;;;;;;;;4958181;29;20027;-71
2022/03/02 03:09:36;;;;;;;21.42;13.35;;;;;;;;;;4956736;29;20421;-70
2022/03/02 03:12:03;;;;;;;25.13;13.52;;;;;;;;;;4955913;29;20120;-72
2022/03/02 03:14:29;;;;;;;21.13;12.50;;;;;;;;;;4956293;29;20031;-70
2022/03/02 03:16:56;;;;;;;21.58;12.13;;;;;;;;;;4954600;29;20493;-70
2022/03/02 03:19:24;;;;;;;23.10;12.23;;;;;;;;;;4961435;29;20145;-70
2022/03/02 03:21:51;;;;;;;21.38;12.23;;;;;;;;;;4939794;29;20031;-70
2022/03/02 03:24:17;;;;;;;19.95;11.70;;;;;;;;;;4956248;29;20027;-70
2022/03/02 03:26:54;;;;;;;31.45;12.60;;;;;;;;;;4952106;29;20024;-70
2022/03/02 03:29:22;;;;;;;19.00;11.63;;;;;;;;;;4923850;29;20028;-69
2022/03/02 03:31:48;;;;;;;21.92;12.70;;;;;;;;;;4954333;29;20111;-71
2022/03/02 03:34:14;;;;;;;22.52;12.18;;;;;;;;;;4955467;29;20035;-70
2022/03/02 03:36:42;;;;;;;20.55;11.98;;;;;;;;;;4958391;28;20035;-70
2022/03/02 03:39:09;;;;;;;25.30;15.13;;;;;;;;;;4957000;29;20168;-70
2022/03/02 03:41:35;;;;;;;21.15;14.73;;;;;;;;;;4955813;29;20106;-71
2022/03/02 03:44:01;;;;;;;22.42;13.82;;;;;;;;;;4958179;29;20043;-70
2022/03/02 03:46:28;;;;;;;20.92;12.50;;;;;;;;;;4938424;29;20164;-71
2022/03/02 03:48:54;;;;;;;18.55;11.23;;;;;;;;;;4955215;29;20035;-70
2022/03/02 03:51:20;;;;;;;22.02;13.13;;;;;;;;;;4955078;29;20057;-70
2022/03/02 03:53:46;;;;;;;19.77;12.20;;;;;;;;;;4954781;29;20019;-71
2022/03/02 03:56:12;;;;;;;20.35;12.13;;;;;;;;;;4955398;29;20405;-70
2022/03/02 03:58:39;;;;;;;23.08;12.77;;;;;;;;;;4966826;29;20526;-70
2022/03/02 04:01:05;;;;;;;17.90;10.93;;;;;;;;;;4955403;29;20030;-70
2022/03/02 04:03:32;;;;;;;19.00;10.65;;;;;;;;;;4954598;29;20097;-69
2022/03/02 04:05:58;;;;;;;23.55;14.07;;;;;;;;;;4954914;28;20051;-70
2022/03/02 04:08:24;;;;;;;19.48;12.10;;;;;;;;;;4955122;29;20039;-70
2022/03/02 04:10:50;;;;;;;20.58;11.95;;;;;;;;;;4954918;29;20023;-70
2022/03/02 04:13:17;;;;;;;16.38;10.25;;;;;;;;;;4954817;29;20106;-70
2022/03/02 04:15:43;;;;;;;18.85;11.85;;;;;;;;;;4955025;29;20103;-70
2022/03/02 04:18:10;;;;;;;19.98;10.40;;;;;;;;;;4959494;29;20031;-70
2022/03/02 04:20:36;;;;;;;14.98;9.20;;;;;;;;;;4954165;29;20090;-70
2022/03/02 04:23:03;;;;;;;16.30;9.43;;;;;;;;;;4955169;29;20463;-70
2022/03/02 04:25:30;;;;;;;16.25;10.10;;;;;;;;;;4941364;29;20027;-70
2022/03/02 04:27:56;;;;;;;17.95;10.23;;;;;;;;;;4954201;29;20111;-70
2022/03/02 04:30:22;;;;;;;17.58;9.10;;;;;;;;;;4954922;29;20055;-70
2022/03/02 04:32:48;;;;;;;16.20;10.30;;;;;;;;;;4954266;29;20163;-71
2022/03/02 04:35:15;;;;;;;17.08;10.55;;;;;;;;;;4956142;29;20094;-70
2022/03/02 04:37:42;;;;;;;15.82;9.98;;;;;;;;;;4954985;28;20086;-70
2022/03/02 04:40:15;;;;;;;16.92;10.32;;;;;;;;;;4955805;29;20119;-70
2022/03/02 04:42:45;;;;;;;16.80;9.52;;;;;;;;;;4938239;29;20068;-71
2022/03/02 04:45:15;;;;;;;19.33;10.38;;;;;;;;;;4954168;29;20082;-70
2022/03/02 04:47:42;;;;;;;18.17;10.70;;;;;;;;;;4940199;29;20404;-70
2022/03/02 04:50:11;;;;;;;17.67;10.32;;;;;;;;;;4954745;29;20031;-71
2022/03/02 04:52:37;;;;;;;22.55;10.50;;;;;;;;;;4957706;29;20091;-69
2022/03/02 04:55:07;;;;;;;20.10;10.30;;;;;;;;;;4960987;29;20023;-69
2022/03/02 04:57:37;;;;;;;18.08;10.57;;;;;;;;;;4954254;29;20035;-70
2022/03/02 05:00:05;;;;;;;18.65;10.48;;;;;;;;;;4960073;29;20020;-70
2022/03/02 05:02:31;;;;;;;18.98;9.98;;;;;;;;;;4959019;29;20043;-70
2022/03/02 05:04:57;;;;;;;16.95;11.07;;;;;;;;;;4950734;29;20031;-70
2022/03/02 05:07:23;;;;;;;19.50;10.18;;;;;;;;;;4960097;29;20042;-70
2022/03/02 05:09:50;;;;;;;17.35;10.18;;;;;;;;;;4962699;29;20106;-70
2022/03/02 05:12:16;;;;;;;19.88;10.35;;;;;;;;;;4939086;29;20034;-69
2022/03/02 05:14:42;;;;;;;17.80;10.48;;;;;;;;;;4954343;29;20034;-70
2022/03/02 05:17:09;;;;;;;16.83;10.02;;;;;;;;;;4955822;28;20035;-70
2022/03/02 05:19:35;;;;;;;19.83;11.38;;;;;;;;;;4954015;29;20074;-71
2022/03/02 05:22:01;;;;;;;21.25;11.50;;;;;;;;;;4958002;29;20034;-70
2022/03/02 05:24:27;;;;;;;20.92;11.80;;;;;;;;;;4958913;29;20034;-70
2022/03/02 05:26:54;;;;;;;19.38;11.50;;;;;;;;;;4957355;29;20098;-69
2022/03/02 05:29:20;;;;;;;17.55;10.93;;;;;;;;;;4955247;29;20034;-70
2022/03/02 05:31:46;;;;;;;20.65;11.63;;;;;;;;;;4957859;29;20119;-70
2022/03/02 05:34:12;;;;;;;19.98;10.90;;;;;;;;;;4953574;29;20390;-70
2022/03/02 05:36:38;;;;;;;18.20;10.80;;;;;;;;;;4944063;29;20042;-70
2022/03/02 05:39:04;;;;;;;21.63;11.13;;;;;;;;;;4946778;29;20106;-69
2022/03/02 05:41:30;;;;;;;21.20;11.38;;;;;;;;;;4954388;29;20035;-71
2022/03/02 05:43:56;;;;;;;20.63;11.40;;;;;;;;;;4956372;29;20039;-74
2022/03/02 05:46:22;;;;;;;18.23;11.40;;;;;;;;;;4973222;29;20046;-75
2022/03/02 05:48:52;;;;;;;26.30;11.77;;;;;;;;;;4969909;29;20396;-72
2022/03/02 05:51:18;;;;;;;23.02;11.88;;;;;;;;;;4962400;29;20031;-73
2022/03/02 05:53:45;;;;;;;25.30;13.02;;;;;;;;;;4960931;29;20556;-72
2022/03/02 05:56:11;;;;;;;23.20;12.43;;;;;;;;;;4963483;29;20126;-70
2022/03/02 05:58:37;;;;;;;23.83;13.13;;;;;;;;;;4961558;29;20030;-70
2022/03/02 06:01:06;;;;;;;25.88;14.70;;;;;;;;;;4956373;28;20127;-72
2022/03/02 06:03:34;;;;;;;24.48;14.05;;;;;;;;;;4956882;29;20084;-71
2022/03/02 06:06:00;;;;;;;22.30;13.77;;;;;;;;;;4956864;29;20038;-72
2022/03/02 06:08:26;;;;;;;23.08;13.45;;;;;;;;;;4957093;29;20036;-70
2022/03/02 06:10:55;;;;;;;24.08;13.63;;;;;;;;;;4939045;29;20023;-72
2022/03/02 06:13:21;;;;;;;27.27;14.73;;;;;;;;;;4950779;29;20081;-72
2022/03/02 06:15:47;;;;;;;28.55;14.27;;;;;;;;;;4953823;29;20030;-73
2022/03/02 06:18:13;;;;;;;26.17;14.18;;;;;;;;;;4954534;29;20031;-68
2022/03/02 06:20:41;;;;;;;22.80;13.95;;;;;;;;;;4956343;29;20494;-73
2022/03/02 06:23:07;;;;;;;26.63;14.98;;;;;;;;;;4949849;29;20409;-75
2022/03/02 06:25:34;;;;;;;25.10;14.30;;;;;;;;;;4958546;29;20139;-74
2022/03/02 06:28:00;;;;;;;23.48;14.73;;;;;;;;;;4959563;28;20030;-74
2022/03/02 06:30:29;;;;;;;28.80;16.15;;;;;;;;;;4959934;29;20052;-77
2022/03/02 06:32:55;;;;;;;24.67;15.07;;;;;;;;;;4958110;29;20019;-75
2022/03/02 06:35:21;;;;;;;26.88;15.18;;;;;;;;;;4956824;29;20031;-75
2022/03/02 06:37:47;;;;;;;28.27;15.50;;;;;;;;;;4962034;28;20071;-78
2022/03/02 06:40:13;;;;;;;35.03;16.10;;;;;;;;;;4957573;29;20441;-71
2022/03/02 06:42:39;;;;;;;30.67;14.93;;;;;;;;;;4955703;29;20030;-73
2022/03/02 06:45:19;;;;;;;30.63;15.23;;;;;;;;;;4963032;29;20011;-74
2022/03/02 06:47:55;;;;;;;28.35;16.58;;;;;;;;;;4959561;29;20069;-72
2022/03/02 06:50:24;;;;;;;34.58;16.77;;;;;;;;;;4959867;29;20027;-71
2022/03/02 06:52:53;;;;;;;52.40;26.17;;;;;;;;;;4956285;29;20023;-71
2022/03/02 06:55:19;;;;;;;36.22;20.58;;;;;;;;;;4955798;29;20035;-71
2022/03/02 06:57:59;;;;;;;57.33;35.83;;;;;;;;;;4957786;29;20402;-72
2022/03/02 07:00:52;;;;;;;35.00;18.67;;;;;;;;;;4938028;29;20086;-71
2022/03/02 07:03:20;;;;;;;35.22;21.60;;;;;;;;;;4956161;29;20047;-72
2022/03/02 07:05:46;;;;;;;29.02;18.95;;;;;;;;;;4951750;29;20377;-75
2022/03/02 07:08:15;;;;;;;28.98;15.43;;;;;;;;;;4956105;29;20038;-73
2022/03/02 07:10:41;;;;;;;23.15;14.07;;;;;;;;;;4956918;29;20203;-72
2022/03/02 07:13:09;;;;;;;51.10;29.05;;;;;;;;;;4960025;29;20034;-74
2022/03/02 07:15:35;;;;;;;25.80;14.60;;;;;;;;;;4956733;29;20026;-76
2022/03/02 07:18:05;;;;;;;22.42;13.65;;;;;;;;;;4940730;29;20031;-77
2022/03/02 07:20:31;;;;;;;23.75;13.25;;;;;;;;;;4959656;29;20074;-76
2022/03/02 07:23:00;;;;;;;20.50;12.93;;;;;;;;;;4956346;29;20114;-76
2022/03/02 07:25:30;;;;;;;24.95;14.10;;;;;;;;;;4942629;29;20039;-74
2022/03/02 07:27:58;;;;;;;22.55;14.05;;;;;;;;;;4957155;29;20058;-76
2022/03/02 07:30:25;;;;;;;30.48;17.75;;;;;;;;;;4953692;29;20110;-77
2022/03/02 07:32:57;;;;;;;24.70;13.68;;;;;;;;;;4963390;29;20043;-76
2022/03/02 07:35:25;;;;;;;21.85;14.65;;;;;;;;;;4940835;29;20023;-76
2022/03/02 07:37:55;;;;;;;24.95;20.42;;;;;;;;;;4956289;28;20389;-79
2022/03/02 07:40:21;;;;;;;25.83;17.45;;;;;;;;;;4953122;28;20481;-74
2022/03/02 07:42:50;;;;;;;18.75;12.65;;;;;;;;;;4954018;29;20035;-72
2022/03/02 07:45:30;;;;;;;19.73;13.20;;;;;;;;;;4926668;29;20640;-75
2022/03/02 07:47:57;;;;;;;18.48;12.50;;;;;;;;;;4951836;29;20394;-73
2022/03/02 07:50:31;;;;;;;18.15;12.88;;;;;;;;;;4935858;29;20031;-70
2022/03/02 07:52:58;;;;;;;20.67;13.90;;;;;;;;;;4937608;29;20035;-73
2022/03/02 07:55:24;;;;;;;26.35;16.98;;;;;;;;;;4933898;29;20122;-76
2022/03/02 07:57:55;;;;;;;28.55;20.83;;;;;;;;;;4936344;29;20066;-76
2022/03/02 08:00:28;;;;;;;25.17;15.95;;;;;;;;;;4936486;29;20034;-79
2022/03/02 08:02:57;;;;;;;20.80;12.43;;;;;;;;;;4952452;29;20393;-76
2022/03/02 08:05:23;;;;;;;19.27;11.43;;;;;;;;;;4949110;29;20050;-73
2022/03/02 08:07:49;;;;;;;21.60;12.55;;;;;;;;;;4933834;29;20485;-77
2022/03/02 08:10:16;;;;;;;22.38;14.18;;;;;;;;;;4950556;29;20105;-80
2022/03/02 08:12:42;;;;;;;16.83;12.13;;;;;;;;;;4932895;29;20394;-75
2022/03/02 08:15:09;;;;;;;18.27;11.02;;;;;;;;;;4949575;29;20032;-73
2022/03/02 08:17:41;;;;;;;17.20;11.23;;;;;;;;;;4933068;29;20481;-70
2022/03/02 08:20:08;;;;;;;19.13;11.50;;;;;;;;;;4944338;29;20039;-74
2022/03/02 08:22:37;;;;;;;21.95;14.77;;;;;;;;;;4954157;29;20419;-79
2022/03/02 08:25:08;;;;;;;18.38;12.10;;;;;;;;;;4936471;29;20122;-72
2022/03/02 08:27:34;;;;;;;19.70;12.80;;;;;;;;;;4953425;29;20082;-80
2022/03/02 08:30:01;;;;;;;14.32;10.57;;;;;;;;;;4932211;29;20040;-82
2022/03/02 08:32:31;;;;;;;18.92;11.10;;;;;;;;;;4953538;29;20085;-84
2022/03/02 08:34:58;;;;;;;16.38;11.30;;;;;;;;;;4953467;29;20049;-83
2022/03/02 08:37:25;;;;;;;21.17;11.70;;;;;;;;;;4936705;28;20489;-81
2022/03/02 08:39:51;;;;;;;15.77;10.50;;;;;;;;;;4936917;29;20031;-89
2022/03/02 08:42:17;;;;;;;15.85;9.80;;;;;;;;;;4948632;29;20032;-79
2022/03/02 08:44:46;;;;;;;15.00;9.90;;;;;;;;;;4928027;29;20114;-82
2022/03/02 08:47:12;;;;;;;19.48;10.23;;;;;;;;;;4935057;29;20478;-87
2022/03/02 08:49:38;;;;;;;15.18;9.52;;;;;;;;;;4951441;29;20023;-81
2022/03/02 08:52:04;;;;;;;13.15;9.02;;;;;;;;;;4950273;28;20031;-78
2022/03/02 08:54:34;;;;;;;13.85;8.80;;;;;;;;;;4954188;29;20045;-85
2022/03/02 08:57:09;;;;;;;14.13;8.85;;;;;;;;;;4954844;29;20042;-79
2022/03/02 08:59:35;;;;;;;14.18;8.55;;;;;;;;;;4955075;29;20039;-81
2022/03/02 09:02:05;;;;;;;10.32;8.43;;;;;;;;;;4958404;29;20044;-76
2022/03/02 09:04:39;;;;;;;13.23;8.05;;;;;;;;;;4961509;29;20043;-77
2022/03/02 09:07:06;;;;;;;13.68;8.50;;;;;;;;;;4969986;29;20043;-75
2022/03/02 09:09:32;;;;;;;14.13;8.70;;;;;;;;;;4966167;29;20102;-72
2022/03/02 09:12:05;;;;;;;16.00;8.82;;;;;;;;;;4955688;29;20039;-73
2022/03/02 09:14:33;;;;;;;16.98;9.98;;;;;;;;;;4937681;29;20419;-74
2022/03/02 09:17:01;;;;;;;13.45;9.07;;;;;;;;;;4919890;29;20051;-75
2022/03/02 09:19:27;;;;;;;13.68;8.90;;;;;;;;;;4928692;28;20111;-74
2022/03/02 09:21:53;;;;;;;14.68;8.63;;;;;;;;;;4935212;29;20050;-71
2022/03/02 09:24:20;;;;;;;15.50;9.00;;;;;;;;;;4936455;29;20051;-73
2022/03/02 09:26:46;;;;;;;13.18;8.38;;;154.50;1740.80;;;;;;4936211;29;20023;-75
2022/03/02 09:29:15;;;;;;;12.85;8.70;;;154.30;1740.80;;;;;;4941818;29;20493;-72
2022/03/02 09:31:50;;;;;;;16.60;8.82;;;154.40;1971.20;;;;;;4934026;29;20028;-73
2022/03/02 09:34:16;;;;;;;16.95;10.43;;;;;;;;;;4914793;29;20032;-74
2022/03/02 09:36:47;;;;;;;14.38;8.05;;;;;;;;;;4919938;29;20032;-75
2022/03/02 09:39:34;;;;;;;17.98;8.68;;;;;;;;;;4921908;29;20414;-76
2022/03/02 09:42:28;;;;;;;12.10;7.97;;;;;;;;;;4907045;29;20052;-75
2022/03/02 09:45:15;;;;;;;;;;;;;;;;;;;;;
2022/03/02 09:48:11;;;;;;;24.17;13.07;;;;;;;;;;4975721;29;20062;-77
2022/03/02 09:50:45;;;;;;;24.75;14.57;;;;;;;;;;4971576;29;20031;-74
2022/03/02 09:53:21;;;;;;;17.75;10.30;;;;;;;;;;4962018;29;20024;-72
2022/03/02 09:55:47;;;;;;;14.05;8.68;;;;;;;;;;4951048;29;20012;-74
2022/03/02 09:58:15;;;;;;;17.58;9.02;;;;;;;;;;4957471;29;20023;-73
2022/03/02 10:00:43;;;;;;;19.70;12.18;;;;;;;;;;4959546;29;20040;-76
2022/03/02 10:03:10;;;;;;;22.02;13.77;;;;;;;;;;4954913;28;20071;-76
2022/03/02 10:05:42;;;;;;;17.23;9.43;;;;;;;;;;4956420;29;20151;-73
2022/03/02 10:08:09;;;;;;;13.65;9.43;;;;;;;;;;4953155;29;20105;-74
2022/03/02 10:10:41;;;;;;;21.63;11.43;;;;;;;;;;4955862;29;20038;-72
2022/03/02 10:13:08;;;;;;;21.05;11.77;;;;;;;;;;4956227;29;20039;-74
2022/03/02 10:15:35;;;;;;;30.58;17.10;;;;;;;;;;4940814;29;20425;-73
2022/03/02 10:18:02;;;;;;;14.52;9.25;;;;;;;;;;4956227;29;20153;-76
2022/03/02 10:20:32;;;;;;;12.52;8.35;;;;;;;;;;4957008;29;20019;-74
2022/03/02 10:23:18;;;;;;;16.58;8.55;;;;;;;;;;4955120;29;20043;-71
2022/03/02 10:25:52;;;;;;;18.00;10.52;;;;;;;;;;4952582;29;20047;-74
2022/03/02 10:28:29;;;;;;;12.75;7.97;;;;;;;;;;4936504;29;20122;-72
2022/03/02 10:31:01;;;;;;;17.63;8.60;;;;;;;;;;4953325;29;20489;-73
2022/03/02 10:33:27;;;;;;;14.60;10.05;;;;;;;;;;4955586;29;20066;-73
2022/03/02 10:36:01;;;;;;;13.48;7.78;;;;;;;;;;4956627;29;20032;-73
2022/03/02 10:38:47;;;;;;;13.35;7.28;;;;;;;;;;4956435;29;20031;-73
2022/03/02 10:41:13;;;;;;;16.23;8.50;;;;;;;;;;4955593;29;20094;-72
2022/03/02 10:44:15;;;;;;;12.93;9.15;;;;;;;;;;4938473;29;20069;-73
2022/03/02 10:46:45;;;;;;;16.73;9.85;;;;;;;;;;4889940;29;20032;-73
2022/03/02 10:49:22;;;;;;;11.85;8.02;;;;;;;;;;4895149;29;20079;-72
2022/03/02 10:51:48;;;;;;;19.42;8.32;;;;;;;;;;4894534;29;20077;-73
2022/03/02 10:54:16;;;;;;;22.25;10.85;;;;;;;;;;4891449;29;20040;-72
2022/03/02 10:56:46;;;;;;;16.83;11.20;;;;;;;;;;4897301;29;20037;-73
2022/03/02 10:59:17;;;;;;;18.90;10.20;;;;;;;;;;4897280;29;20483;-72
2022/03/02 11:01:45;;;;;;;16.38;8.00;;;;;;;;;;4894585;29;20075;-72
2022/03/02 11:04:11;;;;;;;16.10;9.35;;;;;;;;;;4893398;29;20523;-72
2022/03/02 11:06:38;;;;;;;13.77;7.57;;;;;;;;;;4893493;29;20097;-72
2022/03/02 11:09:05;;;;;;;11.82;7.88;;;;;;;;;;4887103;29;20037;-72
2022/03/02 11:11:38;;;;;;;11.23;7.10;;;;;;;;;;4887849;29;20024;-72
2022/03/02 11:14:05;;;;;;;13.40;7.80;;;;;;;;;;4888456;29;20507;-73
2022/03/02 11:16:31;;;;;;;13.68;9.00;;;;;;;;;;4889181;29;20103;-72
2022/03/02 11:19:08;;;;;;;13.98;8.18;;;;;;;;;;4877817;29;20073;-73
2022/03/02 11:21:36;;;;;;;13.00;8.50;;;;;;;;;;4948729;28;20039;-72
2022/03/02 11:24:05;;;;;;;13.68;7.50;;;;;;;;;;4951029;28;20063;-74
2022/03/02 11:26:36;;;;;;;13.88;7.70;;;;;;;;;;4949718;28;20027;-76
2022/03/02 11:29:06;;;;;;;13.50;6.93;;;;;;;;;;4953546;29;20549;-74
2022/03/02 11:31:42;;;;;;;11.38;6.93;;;;;;;;;;4949965;29;20035;-73
2022/03/02 11:34:37;;;;;;;22.23;12.90;;;;;;;;;;4959564;29;20024;-71
2022/03/02 11:37:15;;;;;;;12.60;8.13;;;;;;;;;;4949280;29;20102;-72
2022/03/02 11:40:07;;;;;;;11.35;7.68;;;;;;;;;;4969866;28;20023;-72
2022/03/02 11:42:42;;;;;;;11.30;7.45;;;;;;;;;;4943197;29;20055;-72
2022/03/02 11:45:26;;;;;;;14.50;8.63;;;;;;;;;;4970302;29;20031;-72
2022/03/02 11:47:55;;;;;;;15.05;7.90;;;;;;;;;;4951293;29;20049;-77
2022/03/02 11:50:21;;;;;;;15.45;7.57;;;;;;;;;;4953969;28;20384;-74
2022/03/02 11:52:47;;;;;;;13.68;7.35;;;;;;;;;;4956234;29;20031;-74
2022/03/02 11:55:16;;;;;;;15.65;8.18;;;;;;;;;;4951338;29;20050;-77
2022/03/02 11:57:53;;;;;;;11.90;7.65;;;;;;;;;;4950907;29;20071;-74
2022/03/02 12:00:21;;;;;;;15.27;8.00;;;;;;;;;;4951419;29;20032;-76
2022/03/02 12:02:50;;;;;;;21.48;7.90;;;;;;;;;;4955567;29;20445;-75
2022/03/02 12:05:17;;;;;;;12.43;7.75;;;;;;;;;;4955873;29;20549;-74
2022/03/02 12:07:49;;;;;;;37.20;21.65;;;;;;;;;;4959696;29;20039;-75
2022/03/02 12:10:30;;;;;;;14.82;9.95;;;;;;;;;;4949797;29;20038;-74
2022/03/02 12:13:06;;;;;;;16.73;10.80;;;;;;;;;;4971604;29;20622;-76
2022/03/02 12:15:43;;;;;;;15.48;7.82;;;;;;;;;;4963374;29;20031;-74
2022/03/02 12:18:10;;;;;;;12.10;7.38;;;;;;;;;;4952059;29;20088;-73
2022/03/02 12:20:46;;;;;;;17.33;8.75;;;;;;;;;;4961131;29;20034;-77
2022/03/02 12:23:38;;;;;;;12.95;7.15;;;;;;;;;;4966652;29;20058;-72
2022/03/02 12:26:12;;;;;;;12.05;6.93;;;;;;;;;;4954589;29;20024;-72
2022/03/02 12:28:38;;;;;;;13.88;7.25;;;;;;;;;;4952968;29;20396;-74
2022/03/02 12:31:12;;;;;;;11.13;7.50;;;;;;;;;;4967223;29;20023;-75
2022/03/02 12:33:38;;;;;;;13.25;7.65;;;;;;;;;;4949088;29;20105;-76
2022/03/02 12:36:08;;;;;;;12.18;7.93;;;;;;;;;;4968398;28;20027;-75
2022/03/02 12:38:37;;;;;;;11.88;7.60;;;;;;;;;;4937984;29;20047;-77
2022/03/02 12:41:13;;;;;;;13.68;7.75;;;;;;;;;;4958814;29;20039;-73
2022/03/02 12:43:43;;;;;;;14.25;8.35;;;;;;;;;;4936911;29;20042;-73
2022/03/02 12:46:20;;;;;;;12.90;8.40;;;;;;;;;;4944564;29;20039;-70
2022/03/02 12:48:52;;;;;;;15.65;7.65;;;;;;;;;;4955365;29;20039;-71
2022/03/02 12:51:18;;;;;;;13.75;7.65;;;;;;;;;;4948667;29;20036;-75
2022/03/02 12:53:54;;;;;;;11.60;7.57;;;;;;;;;;4960858;29;20085;-73
2022/03/02 12:56:43;;;;;;;13.60;7.75;;;;;;;;;;4967183;29;20028;-73
2022/03/02 12:59:09;;;;;;;15.93;8.90;;;;;;;;;;4954264;29;20031;-73
2022/03/02 13:01:35;;;;;;;15.85;8.45;;;;;;;;;;4951770;29;20042;-73
2022/03/02 13:04:02;;;;;;;13.60;7.47;;;;;;;;;;4951612;29;20409;-73
2022/03/02 13:06:33;;;;;;;11.60;7.40;;;;;;;;;;4955629;29;20032;-75
2022/03/02 13:09:16;;;;;;;12.95;7.90;;;;;;;;;;4952997;29;20039;-72
2022/03/02 13:11:44;;;;;;;13.73;7.32;;;;;;;;;;4957255;29;20035;-74
2022/03/02 13:14:29;;;;;;;15.25;7.68;;;;;;;;;;4955230;28;20034;-73
2022/03/02 13:17:35;;;;;;;13.45;7.72;;;;;;;;;;4967020;29;20086;-73
2022/03/02 13:20:21;;;;;;;11.52;7.88;;;;;;;;;;4927972;29;20029;-72
2022/03/02 13:23:11;;;;;;;10.68;7.35;;;;;;;;;;4895699;29;20052;-74
2022/03/02 13:25:39;;;;;;;14.10;8.50;;;;;;;;;;4928730;29;20091;-75
2022/03/02 13:28:13;;;;;;;11.82;6.90;;;;;;;;;;4908263;29;20040;-76
2022/03/02 13:30:39;;;;;;;12.43;7.07;;;;;;;;;;4913010;29;20034;-76
2022/03/02 13:33:10;;;;;;;12.23;7.40;;;;;;;;;;4932658;29;20032;-72
2022/03/02 13:35:52;;;;;;;11.15;6.57;;;;;;;;;;4926746;29;20056;-71
2022/03/02 13:38:18;;;;;;;13.75;8.00;;;;;;;;;;4932796;29;20061;-78
2022/03/02 13:40:52;;;;;;;12.85;7.13;;;;;;;;;;4908280;29;20040;-75
2022/03/02 13:43:27;;;;;;;14.85;8.00;;;;;;;;;;4929164;29;20064;-74
2022/03/02 13:45:59;;;;;;;13.02;7.43;;;;;;;;;;4947071;29;20031;-73
2022/03/02 13:48:28;;;;;;;18.60;10.15;;;;;;;;;;4966216;29;20027;-75
2022/03/02 13:50:55;;;;;;;14.45;8.65;;;;;;;;;;4970016;28;20035;-73
2022/03/02 13:53:46;;;;;;;13.43;7.85;;;;;;;;;;4969632;29;20051;-76
2022/03/02 13:56:30;;;;;;;13.00;7.78;;;;;;;;;;4963920;29;20031;-73
2022/03/02 13:58:59;;;;;;;14.40;8.32;;;;;;;;;;4953180;29;20023;-72
2022/03/02 14:01:28;;;;;;;13.82;8.38;;;;;;;;;;4963498;29;20385;-72
2022/03/02 14:04:03;;;;;;;16.90;7.60;;;;;;;;;;4964299;29;20077;-73
2022/03/02 14:06:30;;;;;;;12.80;7.93;;;;;;;;;;4962211;29;20051;-72
2022/03/02 14:08:56;;;;;;;12.20;8.10;;;;;;;;;;4967570;29;20027;-73
2022/03/02 14:11:33;;;;;;;28.45;15.07;;;;;;;;;;4965755;29;20027;-72
2022/03/02 14:14:00;;;;;;;16.42;11.18;;;;;;;;;;4968395;28;20032;-75
2022/03/02 14:16:26;;;;;;;13.80;8.80;;;;;;;;;;4945807;29;20034;-77
2022/03/02 14:19:11;;;;;;;11.35;7.22;;;;;;;;;;4968735;29;20079;-77
2022/03/02 14:21:53;;;;;;;15.82;8.18;;;;;;;;;;4941090;29;20023;-77
2022/03/02 14:27:33;;;;;;;29.13;15.95;;;;;;;;;;4907058;29;20064;-76
2022/03/02 14:30:02;;;;;;;25.85;12.45;;;;;;;;;;4899846;29;20069;-74
2022/03/02 14:32:40;;;;;;;16.17;10.20;;;;;;;;;;4885963;29;20037;-74
2022/03/02 14:35:09;;;;;;;14.25;8.70;;;;;;;;;;4900111;29;20115;-75
2022/03/02 14:37:44;;;;;;;21.75;11.73;;;;;;;;;;4897100;29;20052;-73